Fox Lake, Indiana
Current Conditions -  °F | °C
As of 6:15 PM on Monday 24 Nov 2014 (Local Time) from KANQ Reporting Station
Overcast Overcast  
Wind Chill: 21°   Ceiling: 1600
Heat Index: 34°   Visibility: 10mi
Dew Point: 28°   Wind: 24mph
Humidity: 81%   Direction: 240°WSW
Pressure: 29.58"   Gusts: 36mph
Location:  41.6594°N, 85.0055°W
Report Text: KANQ 242315Z AUTO 24021G31KT 10SM OVC016 01/M02 A2958 RMK
Loading
Personal Weather Stations






























Interactive Weather Map New forecast layout! Learn more

10-Day Weather Forecast

Advertisements
Track Severe Weather on mobile